Time;durP1;ratioP1;P1;durP2;ratioP2;P2;SDS_P1;SDS_P2;PMS_P1;PMS_P2;Temp;Humidity;BMP_temperature;BMP_pressure;BME280_temperature;BME280_humidity;BME280_pressure;Samples;Min_cycle;Max_cycle;Signal;HPM_P1;HPM_P2
2022/06/15 00:01:28;;;;;;;3.20;3.00;;;;;;;15.73;63.73;101126.59;5012729;27;20013;-67
2022/06/15 00:03:54;;;;;;;6.93;3.03;;;;;;;15.55;63.68;101126.69;4993905;28;20139;-69
2022/06/15 00:06:22;;;;;;;5.30;3.55;;;;;;;15.52;63.81;101124.34;4973058;28;20136;-69
2022/06/15 00:08:51;;;;;;;5.28;3.00;;;;;;;15.43;64.12;101116.31;4973741;28;20017;-68
2022/06/15 00:11:24;;;;;;;3.33;2.90;;;;;;;15.44;63.92;101117.97;4976375;28;20014;-68
2022/06/15 00:13:50;;;;;;;4.68;2.92;;;;;;;15.44;64.26;101120.66;4993697;28;20634;-68
2022/06/15 00:16:16;;;;;;;5.38;3.03;;;;;;;15.38;64.52;101121.28;4975657;28;20157;-68
2022/06/15 00:18:44;;;;;;;7.88;3.38;;;;;;;15.24;64.96;101113.88;4991932;28;20022;-68
2022/06/15 00:21:10;;;;;;;5.53;3.22;;;;;;;15.22;65.16;101118.53;4979648;28;20024;-67
2022/06/15 00:23:35;;;;;;;3.67;3.13;;;;;;;15.02;65.30;101113.41;4960019;28;20014;-68
2022/06/15 00:26:01;;;;;;;4.00;3.60;;;;;;;14.86;66.13;101113.31;4980552;28;20017;-68
2022/06/15 00:28:26;;;;;;;4.25;3.30;;;;;;;14.78;66.58;101116.75;4969988;28;20109;-68
2022/06/15 00:30:52;;;;;;;4.57;3.13;;;;;;;14.83;66.69;101113.63;4989135;28;20384;-67
2022/06/15 00:33:19;;;;;;;3.50;2.85;;;;;;;14.79;66.92;101112.25;5010538;28;20082;-68
2022/06/15 00:35:58;;;;;;;5.75;3.20;;;;;;;14.68;67.32;101114.19;4976145;27;20574;-68
2022/06/15 00:38:31;;;;;;;6.60;3.50;;;;;;;14.54;67.88;101109.38;4994041;28;20023;-67
2022/06/15 00:40:57;;;;;;;5.55;3.28;;;;;;;14.57;68.03;101109.06;4977664;28;20353;-68
2022/06/15 00:43:43;;;;;;;5.07;3.45;;;;;;;14.60;68.07;101108.75;4971626;28;20060;-67
2022/06/15 00:46:17;;;;;;;4.07;3.47;;;;;;;14.44;68.35;101106.81;4989093;28;20278;-68
2022/06/15 00:48:43;;;;;;;3.70;3.40;;;;;;;14.36;68.56;101101.41;4982517;28;21004;-68
2022/06/15 00:51:08;;;;;;;5.60;3.35;;;;;;;14.49;68.43;101101.00;4983806;28;20037;-67
2022/06/15 00:53:34;;;;;;;5.25;3.15;;;;;;;14.39;69.04;101101.91;4974944;28;20583;-68
2022/06/15 00:55:59;;;;;;;4.75;3.45;;;;;;;14.19;69.61;101103.91;4970792;28;20056;-66
2022/06/15 00:58:25;;;;;;;8.70;3.63;;;;;;;14.11;69.97;101103.00;4971705;28;20022;-67
2022/06/15 01:00:53;;;;;;;7.20;3.70;;;;;;;13.98;70.39;101098.88;4989228;28;20495;-68
2022/06/15 01:03:19;;;;;;;3.55;3.22;;;;;;;13.98;70.22;101095.38;4993371;28;20129;-68
2022/06/15 01:05:44;;;;;;;4.63;3.40;;;;;;;13.84;71.03;101096.72;4969591;28;20029;-67
2022/06/15 01:08:21;;;;;;;4.57;3.45;;;;;;;13.81;70.78;101089.88;4992522;28;20786;-67
2022/06/15 01:11:11;;;;;;;3.33;3.08;;;;;;;13.85;70.56;101090.44;4982930;28;20515;-67
2022/06/15 01:13:58;;;;;;;3.72;3.42;;;;;;;13.71;71.04;101097.91;4984129;28;20021;-67
2022/06/15 01:16:40;;;;;;;4.90;3.95;;;;;;;13.98;70.25;101093.53;4996785;27;20128;-67
2022/06/15 01:19:24;;;;;;;3.95;3.58;;;;;;;13.73;70.66;101097.75;4974263;28;20427;-66
2022/06/15 01:22:27;;;;;;;6.03;3.33;;;;;;;13.57;70.66;101082.47;4986255;28;20865;-68
2022/06/15 01:25:11;;;;;;;4.97;3.55;;;;;;;13.60;70.80;101100.78;4987935;28;20077;-68
2022/06/15 01:27:45;;;;;;;5.95;3.70;;;;;;;13.64;70.72;101104.81;4973916;28;20019;-67
2022/06/15 01:30:31;;;;;;;4.07;3.65;;;;;;;13.68;70.58;101108.03;4984123;28;20030;-66
2022/06/15 01:33:21;;;;;;;3.78;3.58;;;;;;;13.63;70.31;101105.78;4989623;28;20523;-68
2022/06/15 01:35:59;;;;;;;5.45;4.18;;;;;;;13.47;70.60;101101.13;4987608;28;20238;-67
2022/06/15 01:38:51;;;;;;;7.15;4.13;;;;;;;13.36;71.48;101096.81;4989101;28;20028;-67
2022/06/15 01:41:23;;;;;;;4.70;3.80;;;;;;;13.37;71.60;101106.47;4973697;28;20005;-67
2022/06/15 01:43:51;;;;;;;4.07;3.70;;;;;;;13.56;71.14;101104.72;4986400;28;21158;-68
2022/06/15 01:46:17;;;;;;;5.30;3.72;;;;;;;13.54;71.23;101101.38;4962897;28;20136;-67
2022/06/15 01:48:42;;;;;;;4.55;3.88;;;;;;;13.29;72.10;101102.84;4962356;28;20029;-68
2022/06/15 01:51:11;;;;;;;7.38;4.10;;;;;;;13.23;72.33;101101.59;4968580;28;20018;-68
2022/06/15 01:53:44;;;;;;;5.18;3.83;;;;;;;13.05;72.70;101097.03;4970039;28;20777;-67
2022/06/15 01:56:19;;;;;;;4.35;3.95;;;;;;;12.98;73.25;101100.41;4971274;28;20006;-68
2022/06/15 01:58:47;;;;;;;4.28;3.88;;;;;;;12.96;73.16;101103.22;4972561;28;20546;-66
2022/06/15 02:01:18;;;;;;;4.30;3.95;;;;;;;12.92;73.38;101095.69;4971468;28;20703;-67
2022/06/15 02:03:58;;;;;;;4.28;3.72;;;;;;;12.81;73.86;101097.50;4970299;28;20287;-67
2022/06/15 02:06:47;;;;;;;7.25;4.07;;;;;;;12.76;74.08;101093.59;4959650;28;20076;-67
2022/06/15 02:09:25;;;;;;;4.38;3.97;;;;;;;12.69;74.26;101086.22;4972898;28;20076;-67
2022/06/15 02:11:51;;;;;;;4.20;3.80;;;;;;;12.65;74.30;101084.84;4971738;28;20484;-68
2022/06/15 02:14:22;;;;;;;4.22;3.90;;;;;;;12.60;74.49;101087.06;4987014;28;20336;-67
2022/06/15 02:16:59;;;;;;;4.68;4.10;;;;;;;12.51;74.99;101082.63;4969000;28;20068;-67
2022/06/15 02:19:32;;;;;;;4.30;4.00;;;;;;;12.44;75.71;101081.50;4983846;28;20519;-67
2022/06/15 02:22:00;;;;;;;4.22;3.88;;;;;;;12.43;75.32;101077.16;4952727;28;20080;-67
2022/06/15 02:24:25;;;;;;;6.15;4.18;;;;;;;12.43;75.42;101075.34;4971746;28;20030;-67
2022/06/15 02:26:51;;;;;;;7.22;4.25;;;;;;;12.43;75.33;101079.81;4966060;28;20143;-67
2022/06/15 02:29:19;;;;;;;5.30;4.00;;;;;;;12.42;75.40;101075.50;4971036;28;20125;-67
2022/06/15 02:31:44;;;;;;;5.40;3.88;;;;;;;12.30;75.99;101074.81;4955353;28;20014;-69
2022/06/15 02:34:10;;;;;;;7.00;4.45;;;;;;;12.28;75.93;101072.28;4972727;28;20086;-66
2022/06/15 02:36:35;;;;;;;6.15;3.97;;;;;;;12.22;76.04;101072.84;4985677;28;20025;-67
2022/06/15 02:39:02;;;;;;;5.00;4.10;;;;;;;12.19;76.24;101078.44;4968943;28;20065;-67
2022/06/15 02:41:27;;;;;;;4.60;4.20;;;;;;;12.14;76.42;101075.34;4991260;28;20129;-68
2022/06/15 02:43:53;;;;;;;4.97;4.30;;;;;;;12.07;76.67;101071.56;4977850;28;20013;-67
2022/06/15 02:46:19;;;;;;;6.72;4.47;;;;;;;12.01;76.91;101079.13;4968196;28;20029;-68
2022/06/15 02:48:44;;;;;;;4.40;4.00;;;;;;;12.07;76.82;101074.22;4978920;28;21000;-67
2022/06/15 02:51:17;;;;;;;4.75;4.10;;;;;;;12.01;76.98;101071.16;4963952;28;20388;-68
2022/06/15 02:53:42;;;;;;;4.80;4.40;;;;;;;11.92;77.45;101071.94;5012293;28;20927;-67
2022/06/15 02:56:07;;;;;;;5.70;4.88;;;;;;;11.87;77.83;101071.50;4969877;28;20018;-67
2022/06/15 02:58:44;;;;;;;4.43;4.03;;;;;;;11.88;77.60;101070.53;4975848;27;20021;-67
2022/06/15 03:01:09;;;;;;;4.10;3.80;;;;;;;11.93;77.57;101070.97;4975781;28;20021;-67
2022/06/15 03:03:35;;;;;;;6.30;4.53;;;;;;;11.81;78.19;101064.13;4959672;28;20020;-67
2022/06/15 03:06:00;;;;;;;7.43;4.57;;;;;;;11.88;77.98;101067.91;4973890;27;20040;-67
2022/06/15 03:08:26;;;;;;;4.60;4.20;;;;;;;11.88;77.89;101059.09;4981070;28;20258;-67
2022/06/15 03:10:52;;;;;;;7.45;4.22;;;;;;;11.80;78.12;101058.00;4997027;27;20010;-67
2022/06/15 03:13:18;;;;;;;4.45;4.05;;;;;;;11.72;78.68;101060.47;4963815;28;20041;-67
2022/06/15 03:15:43;;;;;;;6.90;4.43;;;;;;;11.72;78.56;101070.22;4974699;27;20894;-67
2022/06/15 03:18:09;;;;;;;6.07;4.30;;;;;;;11.68;79.10;101075.81;4995638;28;20033;-66
2022/06/15 03:20:34;;;;;;;4.88;4.40;;;;;;;11.74;79.01;101073.59;4969610;27;20540;-67
2022/06/15 03:23:00;;;;;;;5.32;4.30;;;;;;;11.86;78.21;101078.63;4976598;28;20040;-68
2022/06/15 03:25:25;;;;;;;5.72;4.43;;;;;;;12.03;76.74;101074.50;5013743;27;20932;-67
2022/06/15 03:27:51;;;;;;;4.63;4.22;;;;;;;11.98;76.87;101073.25;4990254;28;20024;-67
2022/06/15 03:30:16;;;;;;;4.95;4.50;;;;;;;11.84;77.15;101071.78;4993068;27;20039;-67
2022/06/15 03:32:42;;;;;;;7.70;4.30;;;;;;;11.84;77.55;101077.94;4977035;28;21035;-67
2022/06/15 03:35:07;;;;;;;4.60;4.18;;;;;;;11.80;77.61;101062.44;4958549;28;20117;-67
2022/06/15 03:37:33;;;;;;;4.80;4.30;;;;;;;11.76;78.15;101072.50;4990474;28;20025;-68
2022/06/15 03:39:58;;;;;;;4.57;4.13;;;;;;;11.81;77.82;101070.25;4993747;28;20178;-68
2022/06/15 03:42:24;;;;;;;4.65;4.30;;;;;;;11.93;77.42;101078.06;4959099;28;20049;-68
2022/06/15 03:44:51;;;;;;;5.57;4.20;;;;;;;11.79;77.95;101076.69;4956295;28;20082;-68
2022/06/15 03:47:20;;;;;;;6.82;4.25;;;;;;;11.73;77.96;101069.25;4972745;28;20030;-67
2022/06/15 03:49:47;;;;;;;5.60;4.13;;;;;;;11.62;78.47;101065.75;4974303;28;20159;-67
2022/06/15 03:52:12;;;;;;;4.70;4.18;;;;;;;11.67;78.49;101070.63;4967996;28;20029;-67
2022/06/15 03:54:38;;;;;;;6.10;4.47;;;;;;;11.68;78.68;101075.81;4973364;28;20010;-67
2022/06/15 03:57:04;;;;;;;4.30;4.00;;;;;;;11.66;79.10;101068.97;4979851;28;20033;-68
2022/06/15 03:59:30;;;;;;;6.40;4.22;;;;;;;11.69;78.66;101071.34;4971802;28;20049;-66
2022/06/15 04:01:55;;;;;;;4.65;4.32;;;;;;;11.62;78.78;101081.66;4949841;28;20079;-67
2022/06/15 04:04:21;;;;;;;6.32;4.32;;;;;;;11.65;78.63;101070.78;4970837;28;20048;-67
2022/06/15 04:06:47;;;;;;;6.15;4.32;;;;;;;11.72;78.41;101076.38;4969362;28;20014;-66
2022/06/15 04:09:12;;;;;;;4.72;4.05;;;;;;;11.74;78.60;101073.59;4968181;28;20022;-67
2022/06/15 04:14:22;;;;;;;4.40;4.05;;;;;;;11.78;78.39;101075.00;4971270;28;20017;-67
2022/06/15 04:16:53;;;;;;;9.82;4.20;;;;;;;11.81;78.32;101085.31;4965285;28;20006;-65
2022/06/15 04:19:22;;;;;;;4.68;4.28;;;;;;;11.76;78.83;101076.94;4981812;28;20524;-67
2022/06/15 04:21:48;;;;;;;4.50;4.10;;;;;;;11.94;78.13;101085.94;4944794;28;20006;-66
2022/06/15 04:24:14;;;;;;;5.05;4.10;;;;;;;11.88;78.35;101081.16;4963760;28;20018;-67
2022/06/15 04:26:40;;;;;;;5.65;4.45;;;;;;;11.90;78.50;101083.66;4981647;28;20015;-67
2022/06/15 04:29:06;;;;;;;4.55;4.13;;;;;;;11.94;78.53;101085.94;4975085;28;20125;-68
2022/06/15 04:31:31;;;;;;;5.85;4.40;;;;;;;11.99;78.28;101090.84;4955662;28;20011;-67
2022/06/15 04:33:57;;;;;;;9.32;4.43;;;;;;;11.98;78.32;101087.31;4953512;28;20023;-66
2022/06/15 04:36:24;;;;;;;4.60;4.22;;;;;;;11.99;78.68;101083.72;4954621;28;21022;-65
2022/06/15 04:38:49;;;;;;;5.75;4.32;;;;;;;12.06;78.94;101086.66;4968010;28;20034;-67
2022/06/15 04:41:14;;;;;;;4.13;3.78;;;;;;;12.19;78.58;101081.06;4967874;28;20018;-67
2022/06/15 04:43:40;;;;;;;5.97;4.28;;;;;;;12.25;78.31;101083.16;4977593;28;20980;-67
2022/06/15 04:46:05;;;;;;;4.38;3.97;;;;;;;12.30;78.18;101075.63;4964074;28;20119;-67
2022/06/15 04:48:31;;;;;;;4.78;4.30;;;;;;;12.36;77.98;101075.06;4972549;28;20299;-67
2022/06/15 04:50:56;;;;;;;4.18;3.70;;;;;;;12.54;77.55;101077.03;4956380;28;20018;-67
2022/06/15 04:53:22;;;;;;;3.92;3.63;;;;;;;12.68;77.14;101078.41;4986749;28;20023;-68
2022/06/15 04:55:47;;;;;;;4.60;4.20;;;;;;;12.64;77.65;101077.84;4966517;28;20138;-67
2022/06/15 04:58:12;;;;;;;4.25;3.90;;;;;;;12.68;77.54;101071.25;4973091;28;20014;-67
2022/06/15 05:00:40;;;;;;;5.07;4.07;;;;;;;12.75;77.39;101074.19;4984161;28;20250;-67
2022/06/15 05:03:06;;;;;;;4.63;4.20;;;;;;;12.76;77.79;101081.19;4967559;28;20032;-68
2022/06/15 05:05:31;;;;;;;5.10;4.70;;;;;;;12.80;77.65;101079.91;4966081;28;20018;-66
2022/06/15 05:07:57;;;;;;;5.07;4.68;;;;;;;12.98;77.58;101090.63;4950411;28;20002;-67
2022/06/15 05:10:23;;;;;;;6.30;4.72;;;;;;;13.15;77.08;101080.22;4953075;28;20022;-67
2022/06/15 05:12:49;;;;;;;4.80;4.40;;;;;;;13.30;77.30;101089.41;4952549;28;20425;-67
2022/06/15 05:15:15;;;;;;;7.25;4.80;;;;;;;13.44;77.08;101089.94;4962783;28;20038;-66
2022/06/15 05:17:41;;;;;;;4.53;4.13;;;;;;;13.56;76.54;101094.06;4946308;28;20154;-66
2022/06/15 05:20:10;;;;;;;4.50;4.10;;;;;;;13.65;76.66;101092.34;4944029;28;20003;-66
2022/06/15 05:22:37;;;;;;;5.57;4.50;;;;;;;13.73;76.64;101090.63;4934673;28;20050;-68
2022/06/15 05:25:04;;;;;;;7.38;4.05;;;;;;;13.85;76.71;101099.22;4949289;28;20142;-67
2022/06/15 05:27:29;;;;;;;4.70;4.30;;;;;;;13.99;76.44;101092.56;4957657;28;20037;-67
2022/06/15 05:29:54;;;;;;;6.75;4.43;;;;;;;14.08;76.69;101094.31;4968336;28;20498;-67
2022/06/15 05:32:20;;;;;;;7.07;4.90;;;;;;;14.23;75.78;101097.28;4963434;28;20026;-67
2022/06/15 05:34:45;;;;;;;4.78;4.38;;;;;;;14.35;75.58;101089.91;4968113;28;20006;-67
2022/06/15 05:37:11;;;;;;;5.38;4.50;;;;;;;14.51;75.23;101099.00;4964661;28;20910;-67
2022/06/15 05:39:36;;;;;;;7.35;4.43;;;;;;;14.66;75.20;101084.19;4959099;28;20749;-67
2022/06/15 05:42:03;;;;;;;5.07;4.57;;;;;;;14.71;75.33;101087.22;4970856;28;20033;-68
2022/06/15 05:45:11;;;;;;;5.00;4.35;;;;;;;14.83;75.11;101087.81;4995596;28;20014;-67
2022/06/15 05:47:17;;;;;;;4.60;4.13;;;;;;;14.97;74.49;101086.41;4966617;28;20037;-67
2022/06/15 05:49:43;;;;;;;4.82;4.15;;;;;;;15.08;73.57;101086.13;4989011;28;20029;-67
2022/06/15 05:52:08;;;;;;;4.82;4.03;;;;;;;15.21;72.83;101090.19;4950473;28;20288;-67
2022/06/15 05:54:34;;;;;;;5.50;3.65;;;;;;;15.29;71.74;101099.06;4972283;28;20535;-67
2022/06/15 05:57:00;;;;;;;5.45;3.47;;;;;;;15.50;70.95;101089.84;4968153;28;20029;-67
2022/06/15 05:59:25;;;;;;;3.95;3.65;;;;;;;15.63;70.59;101103.53;4984830;28;20021;-68
2022/06/15 06:01:50;;;;;;;3.88;3.58;;;;;;;15.72;70.85;101099.09;4980220;28;21105;-68
2022/06/15 06:04:17;;;;;;;4.57;3.92;;;;;;;15.83;70.27;101094.47;4987886;28;20018;-67
2022/06/15 06:06:43;;;;;;;3.80;3.40;;;;;;;15.93;69.77;101100.50;4979539;28;20902;-66
2022/06/15 06:09:10;;;;;;;3.30;3.00;;;;;;;15.98;68.23;101098.19;4949603;28;20057;-66
2022/06/15 06:11:35;;;;;;;3.50;3.20;;;;;;;16.00;66.15;101096.19;4964201;28;20015;-67
2022/06/15 06:14:01;;;;;;;4.07;3.10;;;;;;;16.02;64.34;101099.53;4952937;28;20875;-66
2022/06/15 06:16:26;;;;;;;3.40;3.10;;;;;;;16.17;65.29;101107.72;4958706;28;20243;-67
2022/06/15 06:18:52;;;;;;;4.75;3.20;;;;;;;16.24;64.44;101097.22;4988443;28;20018;-67
2022/06/15 06:21:18;;;;;;;3.10;2.88;;;;;;;16.34;64.36;101100.56;4963095;28;20010;-67
2022/06/15 06:23:43;;;;;;;3.10;2.78;;;;;;;16.48;63.47;101101.72;4967855;28;20030;-67
2022/06/15 06:26:21;;;;;;;4.07;2.53;;;;;;;16.54;62.91;101103.75;4987302;28;20131;-67
2022/06/15 06:28:47;;;;;;;3.90;3.00;;;;;;;16.63;62.51;101101.91;4970435;28;20038;-68
2022/06/15 06:31:12;;;;;;;3.53;2.35;;;;;;;16.71;61.62;101109.94;4979178;28;20262;-68
2022/06/15 06:33:38;;;;;;;5.75;2.78;;;;;;;16.74;61.95;101103.41;4989118;28;20033;-67
2022/06/15 06:36:08;;;;;;;3.55;3.00;;;;;;;16.88;62.34;101099.19;4991683;28;20030;-67
2022/06/15 06:38:33;;;;;;;4.20;2.90;;;;;;;16.94;61.78;101101.25;4972863;28;20013;-68
2022/06/15 06:40:59;;;;;;;4.25;2.50;;;;;;;16.93;59.72;101099.56;4989088;28;20006;-67
2022/06/15 06:43:25;;;;;;;4.63;2.28;;;;;;;17.05;60.93;101100.88;4986405;28;20045;-67
2022/06/15 06:45:50;;;;;;;7.97;2.50;;;;;;;17.16;60.32;101103.19;4992691;28;20514;-67
2022/06/15 06:48:15;;;;;;;3.22;2.80;;;;;;;17.21;58.37;101104.53;4984403;28;20040;-67
2022/06/15 06:50:41;;;;;;;4.05;2.40;;;;;;;17.27;58.36;101110.00;4982084;28;20568;-67
2022/06/15 06:53:07;;;;;;;4.55;2.50;;;;;;;17.32;57.87;101112.19;4987741;28;20359;-66
2022/06/15 06:55:32;;;;;;;4.15;2.22;;;;;;;17.43;58.25;101110.94;4976967;28;20025;-67
2022/06/15 06:57:58;;;;;;;5.07;2.38;;;;;;;17.46;57.78;101103.41;4973556;28;20755;-67
2022/06/15 07:00:24;;;;;;;3.08;2.30;;;;;;;17.60;59.50;101109.06;4986204;28;20022;-67
2022/06/15 07:02:50;;;;;;;3.60;2.50;;;;;;;17.71;58.90;101103.31;4973640;28;20963;-67
2022/06/15 07:05:15;;;;;;;2.28;2.00;;;;;;;17.81;57.47;101113.78;4969708;28;20125;-67
2022/06/15 07:07:41;;;;;;;3.10;2.20;;;;;;;17.83;57.73;101101.91;4982352;28;20155;-66
2022/06/15 07:10:06;;;;;;;2.42;2.22;;;;;;;17.91;57.05;101110.91;4986987;27;20079;-67
2022/06/15 07:12:36;;;;;;;2.47;2.17;;;;;;;18.01;57.99;101108.88;4988306;28;20449;-67
2022/06/15 07:15:05;;;;;;;4.70;2.47;;;;;;;18.02;57.28;101102.47;4971362;28;20092;-67
2022/06/15 07:17:31;;;;;;;4.07;2.53;;;;;;;18.11;56.68;101104.13;4983908;28;20129;-67
2022/06/15 07:19:56;;;;;;;2.40;2.20;;;;;;;18.14;56.48;101102.94;4991463;28;20547;-67
2022/06/15 07:22:22;;;;;;;2.85;2.53;;;;;;;18.30;56.69;101107.31;4979734;28;20033;-66
2022/06/15 07:24:48;;;;;;;2.17;1.98;;;;;;;18.35;57.61;101096.91;4993136;28;20045;-67
2022/06/15 07:27:15;;;;;;;2.58;2.25;;;;;;;18.49;57.97;101106.03;4990646;28;20002;-67
2022/06/15 07:29:40;;;;;;;2.63;2.05;;;;;;;18.58;58.10;101102.25;4972805;28;20029;-68
2022/06/15 07:32:06;;;;;;;2.28;2.08;;;;;;;18.63;56.14;101110.59;4980994;28;20422;-67
2022/06/15 07:34:31;;;;;;;3.80;2.25;;;;;;;18.76;55.45;101109.13;4968849;28;20022;-67
2022/06/15 07:36:57;;;;;;;2.35;1.90;;;;;;;18.81;54.52;101102.22;4981212;28;20024;-68
2022/06/15 07:39:27;;;;;;;2.78;2.30;;;;;;;19.00;53.19;101111.59;4992319;28;20939;-66
2022/06/15 07:41:53;;;;;;;1.90;1.80;;;;;;;19.10;52.35;101110.50;4978030;28;20150;-67
2022/06/15 07:44:18;;;;;;;5.25;2.28;;;;;;;19.11;52.52;101107.63;4974794;28;20029;-66
2022/06/15 07:46:44;;;;;;;3.30;2.40;;;;;;;19.21;52.00;101113.56;4987963;28;20170;-68
2022/06/15 07:51:54;;;;;;;;;;;;;;;19.25;52.72;101103.28;5011948;27;20422;-68
2022/06/15 07:54:20;;;;;;;5.05;2.60;;;;;;;19.44;54.00;101107.25;4974796;28;19912;-68
2022/06/15 07:56:45;;;;;;;6.88;2.40;;;;;;;19.58;55.33;101102.06;4989573;28;20021;-68
2022/06/15 07:59:11;;;;;;;2.40;2.20;;;;;;;19.65;53.51;101102.97;4977303;28;20433;-68
2022/06/15 08:01:37;;;;;;;4.43;2.50;;;;;;;19.80;51.10;101111.00;4971120;27;20124;-68
2022/06/15 08:04:04;;;;;;;4.05;2.40;;;;;;;19.81;50.38;101104.63;5012510;28;20944;-68
2022/06/15 08:06:29;;;;;;;4.13;2.10;;;;;;;19.88;49.49;101108.22;4972571;28;20885;-68
2022/06/15 08:08:55;;;;;;;5.00;2.33;;;;;;;19.94;51.31;101104.78;4961383;28;20023;-68
2022/06/15 08:11:20;;;;;;;2.95;2.22;;;;;;;20.08;49.91;101103.91;4939680;28;20625;-69
2022/06/15 08:13:46;;;;;;;3.00;2.30;;;;;;;20.09;49.86;101099.34;4989897;28;20029;-70
2022/06/15 08:16:12;;;;;;;4.03;2.55;;;;;;;20.28;52.67;101102.41;4978048;27;20603;-68
2022/06/15 08:18:44;;;;;;;3.38;2.33;;;;;;;20.39;50.10;101105.44;4974103;28;20765;-67
2022/06/15 08:21:16;;;;;;;2.65;2.00;;;;;;;20.59;51.95;101107.47;5009502;28;20803;-68
2022/06/15 08:23:43;;;;;;;2.58;1.90;;;;;;;20.65;49.41;101108.56;4991615;27;20074;-68
2022/06/15 08:26:10;;;;;;;6.43;2.13;;;;;;;20.76;50.83;101103.50;4971867;28;20036;-68
2022/06/15 08:28:37;;;;;;;3.08;1.90;;;;;;;20.76;50.37;101098.13;4974206;28;20887;-69
2022/06/15 08:31:03;;;;;;;2.20;1.90;;;;;;;20.93;52.14;101095.97;4958451;28;20917;-67
2022/06/15 08:33:28;;;;;;;2.80;1.88;;;;;;;21.14;53.13;101096.94;4961697;28;20106;-67
2022/06/15 08:35:54;;;;;;;2.08;1.88;;;;;;;21.35;53.02;101092.47;4959204;28;20006;-67
2022/06/15 08:38:21;;;;;;;5.63;1.90;;;;;;;21.44;49.98;101093.97;4975579;28;20567;-68
2022/06/15 08:40:55;;;;;;;4.25;1.92;;;;;;;21.42;49.02;101091.47;4972947;28;20031;-67
2022/06/15 08:43:20;;;;;;;7.15;2.38;;;;;;;21.59;49.23;101100.06;4973917;28;20040;-67
2022/06/15 08:45:48;;;;;;;2.10;1.83;;;;;;;21.78;50.08;101086.88;4992758;27;20080;-68
2022/06/15 08:48:44;;;;;;;6.00;2.33;;;;;;;21.99;48.69;101098.53;4975630;28;20010;-67
2022/06/15 08:51:29;;;;;;;7.30;1.98;;;;;;;21.89;49.21;101091.66;4981390;28;20129;-67
2022/06/15 08:54:06;;;;;;;3.45;2.15;;;;;;;22.10;49.64;101097.94;4974209;28;20211;-68
2022/06/15 08:56:49;;;;;;;4.80;2.25;;;;;;;22.40;46.50;101090.31;4989231;28;20098;-66
2022/06/15 08:59:19;;;;;;;2.22;2.03;;;;;;;22.52;46.39;101087.84;5009738;28;20029;-67
2022/06/15 09:01:47;;;;;;;2.22;2.03;;;;;;;22.68;46.91;101097.38;4972521;27;20017;-66
2022/06/15 09:04:13;;;;;;;2.95;2.25;;;;;;;22.97;48.69;101090.69;4993517;28;20038;-66
2022/06/15 09:06:53;;;;;;;2.80;1.70;;;;;;;23.14;46.05;101084.84;5009241;27;20021;-67
2022/06/15 09:09:48;;;;;;;2.00;1.80;;;;;;;23.16;45.26;101082.78;4989046;28;20351;-67
2022/06/15 09:15:27;;;;;;;3.70;2.00;;;;;;;23.56;44.99;101087.22;4995298;27;20454;-67
2022/06/15 09:17:53;;;;;;;5.63;2.00;;;;;;;23.70;42.20;101087.97;5010327;27;20013;-68
2022/06/15 09:20:24;;;;;;;2.88;1.88;;;;;;;23.72;42.72;101085.88;4981521;28;20005;-68
2022/06/15 09:22:56;;;;;;;2.33;1.83;;;;;;;23.91;44.84;101073.34;4975267;28;20598;-66
2022/06/15 09:25:26;;;;;;;2.33;2.13;;;;;;;24.27;44.57;101079.94;4971742;27;20042;-67
2022/06/15 09:27:55;;;;;;;3.88;1.75;;;;;;;24.62;46.59;101079.47;4976685;28;20018;-68
2022/06/15 09:30:31;;;;;;;3.88;1.80;;;;;;;24.81;43.03;101089.28;4976666;28;20433;-68
2022/06/15 09:33:18;;;;;;;9.27;2.20;;;;;;;24.72;40.46;101084.38;4997997;28;20014;-67
2022/06/15 09:35:52;;;;;;;4.40;2.03;;;;;;;25.00;41.79;101076.63;4971721;27;20033;-68
2022/06/15 09:38:18;;;;;;;5.13;1.98;;;;;;;25.23;39.95;101068.84;5002655;28;20057;-68
2022/06/15 09:40:47;;;;;;;3.60;1.70;;;;;;;25.39;39.39;101067.44;4989434;28;20965;-68
2022/06/15 09:43:22;;;;;;;2.75;1.92;;;;;;;25.51;39.20;101065.63;4998573;28;20067;-68
2022/06/15 09:46:15;;;;;;;3.08;1.90;;;;;;;25.84;38.96;101059.72;4982752;27;20420;-68
2022/06/15 09:49:12;;;;;;;3.22;1.60;;;;;;;25.94;36.83;101069.19;4985202;28;20021;-68
2022/06/15 09:51:56;;;;;;;2.40;1.88;;;;;;;26.14;37.11;101068.91;4998939;28;20037;-67
2022/06/15 09:54:30;;;;;;;2.75;1.98;;;;;;;26.20;36.67;101063.41;5018774;28;20109;-66
2022/06/15 09:56:56;;;;;;;3.38;1.70;;;;;;;26.58;38.51;101061.28;4999872;28;20020;-67
2022/06/15 09:59:21;;;;;;;1.90;1.55;;;;;;;26.92;40.42;101061.56;5022386;28;20022;-67
2022/06/15 10:01:47;;;;;;;3.05;1.63;;;;;;;27.02;38.57;101058.25;5000509;28;20132;-67
2022/06/15 10:04:27;;;;;;;6.10;1.58;;;;;;;26.74;37.49;101067.94;4989154;28;20185;-68
2022/06/15 10:07:07;;;;;;;1.92;1.30;;;;;;;27.26;37.14;101056.28;4981859;28;20021;-68
2022/06/15 10:09:47;;;;;;;3.45;1.63;;;;;;;27.67;36.20;101059.00;5004073;28;20229;-69
2022/06/15 10:12:56;;;;;;;6.00;1.73;;;;;;;27.31;35.18;101066.41;5023323;27;20429;-68
2022/06/15 10:15:42;;;;;;;1.98;1.58;;;;;;;27.81;34.58;101065.78;5002420;28;20025;-70
2022/06/15 10:18:33;;;;;;;1.92;1.60;;;;;;;28.40;35.03;101065.44;4994683;28;20104;-68
2022/06/15 10:21:13;;;;;;;2.97;1.60;;;;;;;28.77;32.61;101064.91;5022870;28;20048;-68
2022/06/15 10:23:56;;;;;;;1.50;1.40;;;;;;;29.08;33.43;101068.06;5024201;28;20797;-68
2022/06/15 10:26:29;;;;;;;4.38;1.50;;;;;;;29.42;32.56;101065.22;5002880;28;20046;-68
2022/06/15 10:28:55;;;;;;;1.50;1.40;;;;;;;29.53;33.31;101070.75;4998201;28;20034;-68
2022/06/15 10:31:28;;;;;;;2.72;1.30;;;;;;;29.68;32.97;101060.03;5001122;28;21366;-67
2022/06/15 10:33:55;;;;;;;1.55;1.42;;;;;;;30.07;31.43;101057.13;4986646;28;20017;-68
2022/06/15 10:36:30;;;;;;;1.52;1.40;;;;;;;30.13;32.17;101060.72;4983409;28;20347;-69
2022/06/15 10:39:04;;;;;;;1.95;1.40;;;;;;;29.57;30.33;101053.66;5004456;28;20013;-68
2022/06/15 10:41:47;;;;;;;1.45;1.35;;;;;;;30.20;29.29;101055.88;4983912;28;20001;-69
2022/06/15 10:44:19;;;;;;;1.58;1.48;;;;;;;30.76;30.38;101051.91;4987282;28;20531;-68
2022/06/15 10:46:56;;;;;;;1.63;1.50;;;;;;;31.09;26.64;101055.38;5019593;28;20884;-68
2022/06/15 10:49:21;;;;;;;1.67;1.48;;;;;;;30.92;27.82;101050.88;4984928;28;20655;-69
2022/06/15 10:51:46;;;;;;;2.13;1.40;;;;;;;30.93;29.58;101047.06;4977732;28;20391;-68
2022/06/15 10:54:34;;;;;;;5.50;1.60;;;;;;;31.40;29.58;101052.72;4983776;28;20025;-68
2022/06/15 11:03:10;;;;;;;2.55;1.40;;;;;;;32.00;25.09;101029.31;5003141;28;20048;-67
2022/06/15 11:05:35;;;;;;;3.10;1.55;;;;;;;32.04;26.88;101026.84;4982168;28;20057;-68
2022/06/15 11:08:06;;;;;;;2.00;1.38;;;;;;;31.67;27.07;101025.19;4993799;28;20040;-69
2022/06/15 11:10:40;;;;;;;1.58;1.40;;;;;;;31.91;27.14;101030.13;4978685;28;20055;-68
2022/06/15 11:13:05;;;;;;;1.80;1.48;;;;;;;32.32;25.23;101030.13;4999287;28;20018;-68
2022/06/15 11:18:29;;;;;;;1.42;1.33;;;;;;;32.34;23.09;101026.00;4990686;28;20020;-68
2022/06/15 11:21:12;;;;;;;2.77;1.33;;;;;;;32.89;26.18;101021.78;4998849;28;20034;-68
2022/06/15 11:23:49;;;;;;;2.85;1.40;;;;;;;33.09;23.54;101029.91;4998343;28;20032;-68
2022/06/15 11:29:52;;;;;;;1.30;1.20;;;;;;;33.82;22.76;101014.66;5005361;28;20053;-69
2022/06/15 11:32:44;;;;;;;1.67;1.40;;;;;;;32.81;25.05;101007.53;5004783;27;20165;-68
2022/06/15 11:35:12;;;;;;;2.35;1.40;;;;;;;33.37;25.24;101013.88;5000771;28;20025;-68
2022/06/15 11:37:48;;;;;;;1.52;1.13;;;;;;;32.95;23.49;101006.94;5021159;27;20496;-69
2022/06/15 11:40:21;;;;;;;3.85;1.40;;;;;;;33.35;25.00;101011.41;5001764;28;20033;-69
2022/06/15 11:42:53;;;;;;;1.27;1.17;;;;;;;33.01;24.81;101014.88;4989555;28;20369;-69
2022/06/15 11:45:20;;;;;;;2.40;1.38;;;;;;;33.50;23.38;101007.72;5001425;28;20113;-70
2022/06/15 11:48:33;;;;;;;2.97;1.35;;;;;;;33.67;22.67;101006.53;4984429;28;20105;-69
2022/06/15 11:51:21;;;;;;;1.40;1.30;;;;;;;33.93;22.27;101009.09;4990439;28;20117;-68
2022/06/15 11:54:08;;;;;;;2.05;1.20;;;;;;;33.87;24.33;100994.56;5013805;27;20396;-68
2022/06/15 11:56:43;;;;;;;1.92;1.40;;;;;;;34.05;23.00;101004.03;5017572;27;20033;-69
2022/06/15 11:59:32;;;;;;;1.98;1.60;;;;;;;34.32;24.30;100988.97;4986432;28;20060;-69